Time;durP1;ratioP1;P1;durP2;ratioP2;P2;SDS_P1;SDS_P2;PMS_P1;PMS_P2;Temp;Humidity;BMP_temperature;BMP_pressure;BME280_temperature;BME280_humidity;BME280_pressure;Samples;Min_cycle;Max_cycle;Signal;HPM_P1;HPM_P2
2023/03/17 00:00:44;;;;;;;;;;;9.60;78.30;;;;;;5092320;28;19908;-35
2023/03/17 00:03:15;;;;;;;;;;;9.60;78.40;;;;;;5092253;28;19918;-34
2023/03/17 00:05:41;;;;;;;;;;;9.60;78.70;;;;;;5092082;28;20228;-34
2023/03/17 00:08:14;;;;;;;;;;;9.60;78.50;;;;;;5092139;28;19995;-37
2023/03/17 00:10:40;;;;;;;;;;;9.60;78.40;;;;;;5092041;28;19908;-35
2023/03/17 00:13:05;;;;;;;;;;;9.50;78.20;;;;;;5092104;28;19915;-36
2023/03/17 00:15:31;;;;;;;;;;;9.50;78.20;;;;;;5092002;28;19927;-36
2023/03/17 00:17:57;;;;;;;;;;;9.50;78.10;;;;;;5090565;28;19919;-36
2023/03/17 00:20:27;;;;;;;;;;;9.40;78.10;;;;;;5092002;28;19989;-36
2023/03/17 00:22:58;;;;;;;;;;;9.40;78.10;;;;;;5091935;28;19953;-35
2023/03/17 00:25:27;;;;;;;;;;;9.40;78.10;;;;;;5091961;28;20426;-36
2023/03/17 00:27:53;;;;;;;;;;;9.30;78.00;;;;;;5091914;28;19915;-38
2023/03/17 00:30:20;;;;;;;;;;;9.30;78.00;;;;;;5091564;28;19920;-36
2023/03/17 00:32:47;;;;;;;;;;;9.30;78.00;;;;;;5091789;28;20240;-35
2023/03/17 00:35:31;;;;;;;;;;;9.20;78.00;;;;;;5091877;28;19935;-36
2023/03/17 00:37:56;;;;;;;;;;;9.20;78.00;;;;;;5091824;28;20247;-36
2023/03/17 00:40:23;;;;;;;;;;;9.20;78.00;;;;;;5091633;28;19998;-34
2023/03/17 00:42:50;;;;;;;;;;;9.20;77.90;;;;;;5091793;28;19938;-36
2023/03/17 00:45:16;;;;;;;;;;;9.20;77.80;;;;;;5091722;28;19999;-36
2023/03/17 00:47:42;;;;;;;;;;;9.10;77.60;;;;;;5091679;28;19998;-36
2023/03/17 00:50:12;;;;;;;;;;;9.20;77.60;;;;;;5090791;28;19915;-36
2023/03/17 00:52:37;;;;;;;;;;;9.10;77.60;;;;;;5091705;28;19938;-37
2023/03/17 00:55:04;;;;;;;;;;;9.10;77.50;;;;;;5091815;28;19919;-36
2023/03/17 00:57:30;;;;;;;;;;;9.10;77.50;;;;;;5091793;28;19916;-37
2023/03/17 00:59:55;;;;;;;;;;;9.10;77.50;;;;;;5091506;28;19912;-35
2023/03/17 01:02:21;;;;;;;;;;;9.10;78.00;;;;;;5091416;28;19917;-36
2023/03/17 01:04:46;;;;;;;;;;;9.10;77.40;;;;;;5091467;28;19920;-36
2023/03/17 01:07:13;;;;;;;;;;;9.10;77.30;;;;;;5091515;28;19919;-36
2023/03/17 01:09:40;;;;;;;;;;;9.10;77.30;;;;;;5091380;28;20280;-36
2023/03/17 01:12:06;;;;;;;;;;;9.00;77.20;;;;;;5091403;28;19912;-35
2023/03/17 01:14:32;;;;;;;;;;;9.00;77.80;;;;;;5091489;28;19912;-36
2023/03/17 01:16:58;;;;;;;;;;;9.00;77.20;;;;;;5091279;28;19999;-36
2023/03/17 01:19:24;;;;;;;;;;;9.00;77.20;;;;;;5091919;28;20006;-36
2023/03/17 01:21:49;;;;;;;;;;;9.00;77.10;;;;;;5091371;28;19959;-36
2023/03/17 01:24:15;;;;;;;;;;;9.00;77.10;;;;;;5091262;28;19955;-37
2023/03/17 01:26:40;;;;;;;;;;;9.00;77.10;;;;;;5091316;28;20311;-35
2023/03/17 01:29:06;;;;;;;;;;;9.00;77.00;;;;;;5091209;28;19912;-36
2023/03/17 01:31:32;;;;;;;;;;;9.00;76.90;;;;;;5091145;28;19995;-35
2023/03/17 01:33:58;;;;;;;;;;;9.10;76.90;;;;;;5091310;28;20023;-36
2023/03/17 01:36:24;;;;;;;;;;;9.00;76.80;;;;;;5091215;28;20114;-36
2023/03/17 01:38:49;;;;;;;;;;;9.10;76.70;;;;;;5091193;28;20328;-37
2023/03/17 01:41:19;;;;;;;;;;;9.00;76.60;;;;;;5091132;28;20003;-36
2023/03/17 01:43:44;;;;;;;;;;;9.00;76.60;;;;;;5091097;28;19912;-36
2023/03/17 01:46:14;;;;;;;;;;;9.00;76.50;;;;;;5091113;28;19920;-37
2023/03/17 01:48:43;;;;;;;;;;;9.00;76.60;;;;;;5091137;28;19916;-36
2023/03/17 01:51:12;;;;;;;;;;;9.00;76.60;;;;;;5091086;28;19919;-35
2023/03/17 01:53:38;;;;;;;;;;;8.90;77.20;;;;;;5091080;28;19988;-36
2023/03/17 01:56:04;;;;;;;;;;;8.90;76.60;;;;;;5091051;28;19922;-36
2023/03/17 01:58:30;;;;;;;;;;;8.90;76.60;;;;;;5091020;28;19952;-38
2023/03/17 02:00:56;;;;;;;;;;;8.80;76.60;;;;;;5090919;28;20398;-36
2023/03/17 02:03:22;;;;;;;;;;;8.80;76.60;;;;;;5094512;28;19912;-34
2023/03/17 02:05:50;;;;;;;;;;;8.80;76.60;;;;;;5094870;28;19912;-36
2023/03/17 02:08:16;;;;;;;;;;;8.80;76.60;;;;;;5093362;28;19919;-36
2023/03/17 02:10:43;;;;;;;;;;;8.80;76.60;;;;;;5094475;28;20014;-35
2023/03/17 02:13:11;;;;;;;;;;;8.70;76.50;;;;;;5094465;28;20004;-38
2023/03/17 02:15:38;;;;;;;;;;;8.70;76.50;;;;;;5093908;28;19919;-35
2023/03/17 02:18:03;;;;;;;;;;;8.70;76.50;;;;;;5094267;28;19916;-36
2023/03/17 02:20:29;;;;;;;;;;;8.70;76.50;;;;;;5093873;28;19977;-36
2023/03/17 02:22:56;;;;;;;;;;;8.70;76.50;;;;;;5093928;28;19999;-37
2023/03/17 02:25:23;;;;;;;;;;;8.70;76.50;;;;;;5094108;28;19957;-36
2023/03/17 02:27:50;;;;;;;;;;;8.60;76.50;;;;;;5093748;28;19914;-36
2023/03/17 02:30:17;;;;;;;;;;;8.60;76.50;;;;;;5093507;28;20278;-37
2023/03/17 02:32:43;;;;;;;;;;;8.60;76.50;;;;;;5093555;28;19912;-36
2023/03/17 02:35:09;;;;;;;;;;;8.60;76.50;;;;;;5092635;28;20227;-38
2023/03/17 02:37:34;;;;;;;;;;;8.50;76.50;;;;;;5093555;28;19920;-35
2023/03/17 02:40:01;;;;;;;;;;;8.50;76.50;;;;;;5093615;28;20436;-36
2023/03/17 02:42:27;;;;;;;;;;;8.50;76.50;;;;;;5093434;28;19950;-36
2023/03/17 02:44:53;;;;;;;;;;;8.50;76.50;;;;;;5093382;28;20328;-36
2023/03/17 02:47:18;;;;;;;;;;;8.50;76.50;;;;;;5093296;28;19920;-36
2023/03/17 02:49:44;;;;;;;;;;;8.40;76.40;;;;;;5093429;28;19916;-35
2023/03/17 02:52:09;;;;;;;;;;;8.50;76.40;;;;;;5093294;28;19981;-36
2023/03/17 02:54:35;;;;;;;;;;;8.50;76.40;;;;;;5093241;28;20339;-37
2023/03/17 02:57:01;;;;;;;;;;;8.50;76.40;;;;;;5093143;28;19915;-36
2023/03/17 02:59:26;;;;;;;;;;;8.50;76.30;;;;;;5092970;28;20452;-35
2023/03/17 03:01:52;;;;;;;;;;;8.50;76.30;;;;;;5093082;28;19972;-36
2023/03/17 03:04:18;;;;;;;;;;;8.50;76.30;;;;;;5092992;28;20022;-36
2023/03/17 03:06:44;;;;;;;;;;;8.50;76.30;;;;;;5093012;28;20320;-36
2023/03/17 03:09:10;;;;;;;;;;;8.40;76.20;;;;;;5092848;28;20368;-36
2023/03/17 03:11:36;;;;;;;;;;;8.40;76.20;;;;;;5092884;28;19942;-36
2023/03/17 03:14:02;;;;;;;;;;;8.40;76.20;;;;;;5091864;28;19912;-36
2023/03/17 03:16:27;;;;;;;;;;;8.40;76.30;;;;;;5092723;28;20014;-36
2023/03/17 03:18:53;;;;;;;;;;;8.40;76.20;;;;;;5092688;28;20371;-36
2023/03/17 03:21:19;;;;;;;;;;;8.40;76.20;;;;;;5092788;28;19919;-36
2023/03/17 03:23:44;;;;;;;;;;;8.40;76.10;;;;;;5092808;28;19935;-35
2023/03/17 03:26:11;;;;;;;;;;;8.40;76.00;;;;;;5092756;28;19920;-36
2023/03/17 03:28:36;;;;;;;;;;;8.50;76.00;;;;;;5092856;28;20363;-36
2023/03/17 03:31:01;;;;;;;;;;;8.50;75.90;;;;;;5092625;28;19920;-35
2023/03/17 03:33:27;;;;;;;;;;;8.50;75.90;;;;;;5092862;28;19959;-36
2023/03/17 03:35:52;;;;;;;;;;;8.50;75.80;;;;;;5092898;28;19955;-36
2023/03/17 03:38:18;;;;;;;;;;;8.60;75.80;;;;;;5092733;28;19917;-36
2023/03/17 03:40:44;;;;;;;;;;;8.50;75.70;;;;;;5092799;28;20006;-35
2023/03/17 03:43:10;;;;;;;;;;;8.60;75.70;;;;;;5092602;28;20279;-36
2023/03/17 03:45:35;;;;;;;;;;;8.60;75.60;;;;;;5092838;28;20364;-36
2023/03/17 03:48:01;;;;;;;;;;;8.60;75.50;;;;;;5092916;28;20002;-36
2023/03/17 03:50:26;;;;;;;;;;;8.70;75.50;;;;;;5092663;28;20283;-36
2023/03/17 03:52:52;;;;;;;;;;;8.70;75.50;;;;;;5092556;28;19912;-36
2023/03/17 03:55:17;;;;;;;;;;;8.70;75.40;;;;;;5092748;28;19916;-36
2023/03/17 03:57:43;;;;;;;;;;;8.70;75.40;;;;;;5092216;28;19973;-36
2023/03/17 04:00:09;;;;;;;;;;;8.70;75.30;;;;;;5092093;28;20302;-36
2023/03/17 04:02:35;;;;;;;;;;;8.70;75.30;;;;;;5092100;28;19947;-36
2023/03/17 04:05:01;;;;;;;;;;;8.70;75.40;;;;;;5092114;28;20284;-42
2023/03/17 04:07:26;;;;;;;;;;;8.70;75.40;;;;;;5092390;28;19943;-39
2023/03/17 04:09:52;;;;;;;;;;;8.70;75.30;;;;;;5092106;28;19919;-35
2023/03/17 04:12:17;;;;;;;;;;;8.70;75.30;;;;;;5092351;28;19953;-35
2023/03/17 04:14:43;;;;;;;;;;;8.70;75.30;;;;;;5090428;28;19916;-36
2023/03/17 04:17:13;;;;;;;;;;;8.70;75.90;;;;;;5091801;28;19916;-36
2023/03/17 04:19:38;;;;;;;;;;;8.70;75.30;;;;;;5091655;28;19919;-36
2023/03/17 04:22:04;;;;;;;;;;;8.70;75.20;;;;;;5091710;28;19912;-36
2023/03/17 04:24:29;;;;;;;;;;;8.70;75.10;;;;;;5091444;28;19912;-35
2023/03/17 04:26:55;;;;;;;;;;;8.70;75.10;;;;;;5091986;28;19912;-35
2023/03/17 04:29:21;;;;;;;;;;;8.70;75.10;;;;;;5092280;28;19999;-36
2023/03/17 04:31:46;;;;;;;;;;;8.70;75.10;;;;;;5091753;28;19928;-36
2023/03/17 04:34:14;;;;;;;;;;;8.70;75.20;;;;;;5091904;28;20375;-36
2023/03/17 04:36:39;;;;;;;;;;;8.60;75.20;;;;;;5091874;28;19912;-36
2023/03/17 04:39:06;;;;;;;;;;;8.60;75.20;;;;;;5090511;28;19919;-36
2023/03/17 04:41:31;;;;;;;;;;;8.50;75.20;;;;;;5091775;28;20331;-36
2023/03/17 04:43:57;;;;;;;;;;;8.50;75.30;;;;;;5091896;28;19908;-36
2023/03/17 04:46:22;;;;;;;;;;;8.50;75.30;;;;;;5090382;28;19908;-35
2023/03/17 04:48:48;;;;;;;;;;;8.50;75.30;;;;;;5091686;28;19939;-36
2023/03/17 04:51:13;;;;;;;;;;;8.50;75.30;;;;;;5091636;28;20429;-35
2023/03/17 04:53:39;;;;;;;;;;;8.40;75.20;;;;;;5091662;28;19908;-35
2023/03/17 04:56:05;;;;;;;;;;;8.40;75.20;;;;;;5091795;28;19998;-36
2023/03/17 04:58:30;;;;;;;;;;;8.40;75.20;;;;;;5091504;28;19912;-36
2023/03/17 05:00:56;;;;;;;;;;;8.40;75.20;;;;;;5091667;28;19915;-35
2023/03/17 05:03:21;;;;;;;;;;;8.40;75.30;;;;;;5090169;28;19999;-36
2023/03/17 05:05:47;;;;;;;;;;;8.40;75.30;;;;;;5091716;28;20283;-36
2023/03/17 05:08:12;;;;;;;;;;;8.40;75.30;;;;;;5091654;28;20455;-37
2023/03/17 05:10:38;;;;;;;;;;;8.40;76.00;;;;;;5091480;28;19908;-36
2023/03/17 05:13:03;;;;;;;;;;;8.40;75.30;;;;;;5091593;28;19908;-36
2023/03/17 05:15:29;;;;;;;;;;;8.40;75.30;;;;;;5091424;28;19977;-36
2023/03/17 05:17:55;;;;;;;;;;;8.40;75.30;;;;;;5091324;28;20328;-35
2023/03/17 05:20:20;;;;;;;;;;;8.40;75.20;;;;;;5091514;28;20384;-36
2023/03/17 05:22:46;;;;;;;;;;;8.40;75.20;;;;;;5091352;28;19960;-35
2023/03/17 05:25:11;;;;;;;;;;;8.40;75.10;;;;;;5091468;28;19908;-38
2023/03/17 05:27:38;;;;;;;;;;;8.40;75.10;;;;;;5091426;28;19909;-35
2023/03/17 05:30:04;;;;;;;;;;;8.40;75.10;;;;;;5091214;28;19908;-34
2023/03/17 05:32:30;;;;;;;;;;;8.40;75.10;;;;;;5091509;28;19961;-36
2023/03/17 05:34:56;;;;;;;;;;;8.40;75.10;;;;;;5091563;28;20306;-35
2023/03/17 05:37:22;;;;;;;;;;;8.40;75.10;;;;;;5092919;28;19919;-36
2023/03/17 05:39:49;;;;;;;;;;;8.30;75.00;;;;;;5094793;28;20304;-36
2023/03/17 05:42:15;;;;;;;;;;;8.30;75.10;;;;;;5095421;28;20444;-35
2023/03/17 05:44:40;;;;;;;;;;;8.30;75.10;;;;;;5095300;28;19908;-36
2023/03/17 05:47:07;;;;;;;;;;;8.30;75.10;;;;;;5095162;28;19948;-36
2023/03/17 05:49:32;;;;;;;;;;;8.20;75.00;;;;;;5095336;28;19936;-36
2023/03/17 05:51:58;;;;;;;;;;;8.20;75.10;;;;;;5095101;28;19908;-36
2023/03/17 05:54:23;;;;;;;;;;;8.20;75.10;;;;;;5094928;28;19908;-35
2023/03/17 05:56:49;;;;;;;;;;;8.20;75.10;;;;;;5094853;28;19908;-36
2023/03/17 05:59:17;;;;;;;;;;;8.20;75.20;;;;;;5094879;28;19955;-36
2023/03/17 06:01:42;;;;;;;;;;;8.20;75.20;;;;;;5095274;28;19998;-36
2023/03/17 06:04:08;;;;;;;;;;;8.20;75.20;;;;;;5094934;28;19966;-35
2023/03/17 06:06:34;;;;;;;;;;;8.20;75.20;;;;;;5094816;28;19965;-35
2023/03/17 06:09:00;;;;;;;;;;;8.20;75.10;;;;;;5094982;28;20277;-36
2023/03/17 06:11:25;;;;;;;;;;;8.20;75.10;;;;;;5095018;28;20426;-36
2023/03/17 06:13:51;;;;;;;;;;;8.30;75.10;;;;;;5094808;28;19969;-36
2023/03/17 06:16:16;;;;;;;;;;;8.20;74.90;;;;;;5094448;28;19915;-35
2023/03/17 06:18:42;;;;;;;;;;;8.30;75.00;;;;;;5094928;28;19912;-36
2023/03/17 06:21:07;;;;;;;;;;;8.30;74.90;;;;;;5094467;28;20032;-36
2023/03/17 06:23:33;;;;;;;;;;;8.30;74.90;;;;;;5094509;28;20028;-37
2023/03/17 06:25:58;;;;;;;;;;;8.30;74.90;;;;;;5094414;28;19908;-35
2023/03/17 06:28:24;;;;;;;;;;;8.30;74.90;;;;;;5094209;28;20301;-35
2023/03/17 06:30:50;;;;;;;;;;;8.30;74.90;;;;;;5094268;28;19928;-36
2023/03/17 06:33:17;;;;;;;;;;;8.30;74.90;;;;;;5092937;28;19956;-36
2023/03/17 06:35:42;;;;;;;;;;;8.30;74.90;;;;;;5094273;28;20366;-37
2023/03/17 06:38:08;;;;;;;;;;;8.40;74.90;;;;;;5094034;28;20010;-35
2023/03/17 06:40:33;;;;;;;;;;;8.40;74.90;;;;;;5094357;28;19981;-35
2023/03/17 06:43:00;;;;;;;;;;;8.30;74.80;;;;;;5094043;28;20317;-37
2023/03/17 06:45:25;;;;;;;;;;;8.30;74.80;;;;;;5093954;28;19916;-36
2023/03/17 06:47:51;;;;;;;;;;;8.30;74.80;;;;;;5092056;28;20048;-36
2023/03/17 06:50:16;;;;;;;;;;;8.30;74.80;;;;;;5093386;28;19912;-45
2023/03/17 06:52:42;;;;;;;;;;;8.30;74.80;;;;;;5093692;28;20355;-37
2023/03/17 06:55:08;;;;;;;;;;;8.30;74.80;;;;;;5093575;28;20011;-36
2023/03/17 06:57:33;;;;;;;;;;;8.30;74.80;;;;;;5093626;28;19916;-32
2023/03/17 06:59:59;;;;;;;;;;;8.40;74.80;;;;;;5093583;28;20367;-44
2023/03/17 07:02:25;;;;;;;;;;;8.40;74.70;;;;;;5093268;28;20287;-37
2023/03/17 07:04:51;;;;;;;;;;;8.40;74.60;;;;;;5093282;28;20310;-45
2023/03/17 07:07:17;;;;;;;;;;;8.50;74.60;;;;;;5092115;28;19912;-47
2023/03/17 07:09:42;;;;;;;;;;;8.60;74.50;;;;;;5093546;28;20360;-40
2023/03/17 07:12:09;;;;;;;;;;;8.60;74.40;;;;;;5093365;28;19912;-37
2023/03/17 07:14:35;;;;;;;;;;;8.70;74.40;;;;;;5093329;28;19919;-39
2023/03/17 07:17:02;;;;;;;;;;;8.70;74.20;;;;;;5093222;28;20368;-39
2023/03/17 07:19:27;;;;;;;;;;;8.80;74.10;;;;;;5093285;28;19916;-39
2023/03/17 07:21:54;;;;;;;;;;;8.90;74.00;;;;;;5093089;28;19912;-39
2023/03/17 07:24:20;;;;;;;;;;;8.90;74.00;;;;;;5093174;28;19916;-38
2023/03/17 07:26:46;;;;;;;;;;;9.00;73.90;;;;;;5093176;28;19919;-37
2023/03/17 07:29:13;;;;;;;;;;;9.10;73.90;;;;;;5093117;28;20391;-39
2023/03/17 07:31:38;;;;;;;;;;;9.10;73.70;;;;;;5093170;28;19973;-38
2023/03/17 07:34:05;;;;;;;;;;;9.20;73.60;;;;;;5093596;28;19912;-37
2023/03/17 07:36:33;;;;;;;;;;;9.30;73.50;;;;;;5093090;28;20016;-41
2023/03/17 07:39:00;;;;;;;;;;;9.40;73.50;;;;;;5093087;28;20006;-39
2023/03/17 07:41:26;;;;;;;;;;;9.50;73.40;;;;;;5091679;28;19912;-38
2023/03/17 07:43:52;;;;;;;;;;;9.50;73.20;;;;;;5093029;28;20363;-40
2023/03/17 07:46:17;;;;;;;;;;;9.60;73.10;;;;;;5092946;28;19919;-39
2023/03/17 07:48:43;;;;;;;;;;;9.70;73.10;;;;;;5093000;28;19952;-40
2023/03/17 07:51:13;;;;;;;;;;;9.70;73.00;;;;;;5093175;28;20207;-39
2023/03/17 07:53:38;;;;;;;;;;;9.80;72.90;;;;;;5093029;28;19919;-38
2023/03/17 07:56:04;;;;;;;;;;;9.90;72.90;;;;;;5092716;28;19912;-39
2023/03/17 07:58:30;;;;;;;;;;;9.90;72.90;;;;;;5092760;28;20306;-37
2023/03/17 08:00:56;;;;;;;;;;;10.00;72.80;;;;;;5092482;28;19916;-38
2023/03/17 08:03:22;;;;;;;;;;;10.10;72.90;;;;;;5092498;28;19920;-38
2023/03/17 08:05:52;;;;;;;;;;;10.10;72.90;;;;;;5092512;28;20267;-39
2023/03/17 08:08:20;;;;;;;;;;;10.20;73.00;;;;;;5092313;28;19912;-38
2023/03/17 08:10:45;;;;;;;;;;;10.20;73.10;;;;;;5092597;28;19912;-38
2023/03/17 08:13:11;;;;;;;;;;;10.20;73.20;;;;;;5092401;28;19920;-39
2023/03/17 08:15:36;;;;;;;;;;;10.30;73.50;;;;;;5092387;28;20378;-38
2023/03/17 08:18:02;;;;;;;;;;;10.30;73.90;;;;;;5092173;28;19916;-41
2023/03/17 08:20:28;;;;;;;;;;;10.30;74.30;;;;;;5092311;28;19912;-38
2023/03/17 08:22:55;;;;;;;;;;;10.30;74.40;;;;;;5092314;28;19912;-40
2023/03/17 08:25:21;;;;;;;;;;;10.30;74.60;;;;;;5092195;28;20371;-43
2023/03/17 08:27:47;;;;;;;;;;;10.40;75.60;;;;;;5092135;28;20278;-40
2023/03/17 08:30:15;;;;;;;;;;;10.40;76.20;;;;;;5092053;28;19918;-39
2023/03/17 08:32:40;;;;;;;;;;;10.50;77.70;;;;;;5090816;28;19920;-40
2023/03/17 08:35:06;;;;;;;;;;;10.50;78.30;;;;;;5092097;28;19919;-39
2023/03/17 08:37:32;;;;;;;;;;;10.60;78.70;;;;;;5091879;28;19961;-39
2023/03/17 08:39:57;;;;;;;;;;;10.60;78.90;;;;;;5090533;28;19912;-38
2023/03/17 08:42:23;;;;;;;;;;;10.70;78.60;;;;;;5092050;28;19980;-41
2023/03/17 08:44:48;;;;;;;;;;;10.70;78.90;;;;;;5091922;28;19912;-39
2023/03/17 08:47:15;;;;;;;;;;;10.80;79.00;;;;;;5090542;28;19912;-41
2023/03/17 08:49:41;;;;;;;;;;;10.80;78.90;;;;;;5091807;28;20003;-39
2023/03/17 08:52:06;;;;;;;;;;;10.90;78.50;;;;;;5091857;28;19916;-40
2023/03/17 08:54:33;;;;;;;;;;;10.90;78.30;;;;;;5091659;28;20045;-40
2023/03/17 08:57:00;;;;;;;;;;;11.00;78.20;;;;;;5091340;28;20034;-39
2023/03/17 08:59:26;;;;;;;;;;;11.00;77.80;;;;;;5091855;28;19912;-37
2023/03/17 09:01:51;;;;;;;;;;;11.10;77.20;;;;;;5091848;28;19965;-41
2023/03/17 09:04:17;;;;;;;;;;;11.10;76.90;;;;;;5091804;28;20342;-39
2023/03/17 09:06:42;;;;;;;;;;;11.20;76.80;;;;;;5092002;28;19912;-39
2023/03/17 09:09:09;;;;;;;;;;;11.30;76.80;;;;;;5091996;28;19912;-39
2023/03/17 09:11:34;;;;;;;;;;;11.30;77.10;;;;;;5092355;28;19916;-41
2023/03/17 09:13:59;;;;;;;;;;;11.40;77.20;;;;;;5095689;28;20436;-40
2023/03/17 09:16:26;;;;;;;;;;;11.50;77.30;;;;;;5095884;28;19912;-40
2023/03/17 09:18:52;;;;;;;;;;;11.50;77.20;;;;;;5095771;28;19916;-40
2023/03/17 09:21:17;;;;;;;;;;;11.60;77.20;;;;;;5096019;28;19977;-35
2023/03/17 09:23:43;;;;;;;;;;;11.60;76.90;;;;;;5095965;28;20355;-36
2023/03/17 09:26:09;;;;;;;;;;;11.70;76.80;;;;;;5095907;28;19919;-33
2023/03/17 09:28:34;;;;;;;;;;;11.80;76.60;;;;;;5095841;28;19965;-36
2023/03/17 09:31:01;;;;;;;;;;;11.90;76.60;;;;;;5095814;28;19924;-36
2023/03/17 09:33:27;;;;;;;;;;;12.00;76.70;;;;;;5095684;28;20007;-36
2023/03/17 09:35:55;;;;;;;;;;;12.00;77.00;;;;;;5095678;28;19912;-38
2023/03/17 09:38:22;;;;;;;;;;;12.10;76.50;;;;;;5095554;28;20026;-36
2023/03/17 09:40:52;;;;;;;;;;;12.10;76.40;;;;;;5095631;28;19919;-35
2023/03/17 09:43:27;;;;;;;;;;;12.10;76.30;;;;;;5095475;28;20438;-37
2023/03/17 09:45:54;;;;;;;;;;;12.20;76.40;;;;;;5095467;28;19970;-46
2023/03/17 09:48:23;;;;;;;;;;;12.30;76.00;;;;;;5095376;28;19916;-37
2023/03/17 09:51:15;;;;;;;;;;;12.30;76.10;;;;;;5095446;28;20235;-37
2023/03/17 09:53:50;;;;;;;;;;;12.40;75.90;;;;;;5093023;28;19916;-36
2023/03/17 09:56:16;;;;;;;;;;;12.50;75.70;;;;;;5095253;28;19957;-36
2023/03/17 09:59:11;;;;;;;;;;;12.60;75.50;;;;;;5095184;28;20329;-38
2023/03/17 10:01:40;;;;;;;;;;;12.80;76.10;;;;;;5057448;28;19938;-37
2023/03/17 10:04:07;;;;;;;;;;;13.00;75.00;;;;;;5095316;28;20294;-37
2023/03/17 10:06:43;;;;;;;;;;;13.10;74.70;;;;;;5094997;28;19912;-41
2023/03/17 10:09:14;;;;;;;;;;;13.30;74.30;;;;;;5095056;28;19912;-36
2023/03/17 10:11:41;;;;;;;;;;;13.40;74.10;;;;;;5095136;28;19919;-37
2023/03/17 10:14:12;;;;;;;;;;;13.50;73.90;;;;;;5094922;28;19973;-37
2023/03/17 10:16:45;;;;;;;;;;;13.70;74.10;;;;;;5094824;28;20295;-37
2023/03/17 10:19:22;;;;;;;;;;;13.80;73.40;;;;;;5094870;28;20379;-37
2023/03/17 10:21:54;;;;;;;;;;;13.90;73.00;;;;;;5095042;28;20003;-37
2023/03/17 10:24:20;;;;;;;;;;;14.00;72.90;;;;;;5094477;28;19969;-37
2023/03/17 10:26:48;;;;;;;;;;;14.10;72.70;;;;;;5095106;28;19912;-37
2023/03/17 10:29:20;;;;;;;;;;;14.20;72.60;;;;;;5095079;28;19912;-37
2023/03/17 10:31:46;;;;;;;;;;;14.20;72.40;;;;;;5094670;28;19919;-37
2023/03/17 10:34:22;;;;;;;;;;;14.30;72.20;;;;;;5094578;28;19916;-37
2023/03/17 10:36:50;;;;;;;;;;;14.40;72.20;;;;;;5093176;28;19946;-37
2023/03/17 10:39:17;;;;;;;;;;;14.50;72.00;;;;;;5094530;28;19912;-38
2023/03/17 10:41:55;;;;;;;;;;;14.60;71.90;;;;;;5094371;28;19966;-37
2023/03/17 10:44:28;;;;;;;;;;;14.60;71.80;;;;;;5094281;28;19912;-37
2023/03/17 10:46:54;;;;;;;;;;;14.70;71.70;;;;;;5094460;28;19998;-37
2023/03/17 10:49:22;;;;;;;;;;;14.70;71.30;;;;;;5094245;28;19962;-37
2023/03/17 10:51:49;;;;;;;;;;;14.80;71.30;;;;;;5094353;28;19919;-37
2023/03/17 10:54:19;;;;;;;;;;;14.80;70.20;;;;;;5094265;28;20391;-37
2023/03/17 10:56:49;;;;;;;;;;;14.80;69.80;;;;;;5094262;28;20340;-37
2023/03/17 10:59:19;;;;;;;;;;;14.90;69.50;;;;;;5094232;28;19970;-37
2023/03/17 11:01:52;;;;;;;;;;;14.90;69.30;;;;;;5094203;28;19912;-38
2023/03/17 11:04:30;;;;;;;;;;;15.00;69.30;;;;;;5094254;28;19913;-36
2023/03/17 11:06:57;;;;;;;;;;;15.10;68.20;;;;;;5094799;28;19962;-38
2023/03/17 11:09:25;;;;;;;;;;;15.10;67.80;;;;;;5093946;28;19912;-37
2023/03/17 11:12:01;;;;;;;;;;;15.10;67.50;;;;;;5093991;28;19952;-37
2023/03/17 11:14:27;;;;;;;;;;;15.10;67.60;;;;;;5094118;28;19912;-37
2023/03/17 11:16:54;;;;;;;;;;;15.20;67.80;;;;;;5093886;28;20280;-42
2023/03/17 11:19:25;;;;;;;;;;;15.30;67.90;;;;;;5094336;28;19960;-36
2023/03/17 11:21:58;;;;;;;;;;;15.40;67.70;;;;;;5094174;28;19919;-35
2023/03/17 11:24:29;;;;;;;;;;;15.50;67.50;;;;;;5093853;28;20328;-37
2023/03/17 11:26:58;;;;;;;;;;;15.60;67.30;;;;;;5093935;28;19912;-38
2023/03/17 11:29:26;;;;;;;;;;;15.70;67.20;;;;;;5094097;28;19970;-37
2023/03/17 11:32:15;;;;;;;;;;;15.80;66.90;;;;;;5092198;28;19927;-37
2023/03/17 11:34:42;;;;;;;;;;;15.80;65.50;;;;;;5073010;28;19923;-38
2023/03/17 11:37:25;;;;;;;;;;;15.90;64.60;;;;;;5093558;28;19912;-38
2023/03/17 11:39:50;;;;;;;;;;;15.90;65.10;;;;;;5093824;28;20294;-37
2023/03/17 11:42:20;;;;;;;;;;;15.90;64.90;;;;;;5093574;28;20006;-38
2023/03/17 11:45:04;;;;;;;;;;;15.90;65.10;;;;;;5093336;28;20279;-37
2023/03/17 11:47:36;;;;;;;;;;;16.00;65.50;;;;;;5093444;28;19944;-36
2023/03/17 11:50:19;;;;;;;;;;;15.90;64.10;;;;;;5092966;28;19957;-35
2023/03/17 11:52:57;;;;;;;;;;;16.00;64.20;;;;;;5093311;28;19981;-36
2023/03/17 11:55:35;;;;;;;;;;;16.00;63.80;;;;;;5093449;28;19912;-36
2023/03/17 11:58:08;;;;;;;;;;;15.90;63.40;;;;;;5093153;28;19920;-36
2023/03/17 12:00:37;;;;;;;;;;;16.00;63.10;;;;;;5093211;28;20406;-36
2023/03/17 12:03:11;;;;;;;;;;;16.10;63.40;;;;;;5093316;28;19915;-36
2023/03/17 12:05:38;;;;;;;;;;;16.20;63.80;;;;;;5093206;28;19939;-36
2023/03/17 12:08:10;;;;;;;;;;;16.20;63.80;;;;;;5093100;28;19915;-36
2023/03/17 12:10:40;;;;;;;;;;;16.30;63.80;;;;;;5093178;28;19943;-37
2023/03/17 12:13:28;;;;;;;;;;;16.30;64.10;;;;;;5092875;28;19961;-36
2023/03/17 12:16:02;;;;;;;;;;;16.40;64.20;;;;;;5092494;28;20397;-36
2023/03/17 12:18:34;;;;;;;;;;;16.60;64.90;;;;;;5092550;28;19999;-37
2023/03/17 12:21:03;;;;;;;;;;;16.70;64.20;;;;;;5092629;28;19967;-35
2023/03/17 12:23:47;;;;;;;;;;;16.80;63.70;;;;;;5092564;28;20333;-36
2023/03/17 12:26:20;;;;;;;;;;;16.80;63.70;;;;;;5092433;28;20283;-36
2023/03/17 12:28:48;;;;;;;;;;;16.80;62.90;;;;;;5092460;28;19908;-37
2023/03/17 12:31:22;;;;;;;;;;;16.90;62.50;;;;;;5092408;28;19963;-37
2023/03/17 12:33:58;;;;;;;;;;;16.90;62.30;;;;;;5092629;28;20391;-35
2023/03/17 12:36:24;;;;;;;;;;;16.90;62.70;;;;;;5092501;28;19937;-36
2023/03/17 12:38:52;;;;;;;;;;;16.90;62.60;;;;;;5092206;28;19969;-35
2023/03/17 12:41:25;;;;;;;;;;;17.00;62.50;;;;;;5092116;28;19919;-34
2023/03/17 12:43:54;;;;;;;;;;;17.10;62.60;;;;;;5090827;28;19916;-36
2023/03/17 12:46:32;;;;;;;;;;;17.10;62.60;;;;;;5092529;28;19920;-37
2023/03/17 12:49:24;;;;;;;;;;;17.20;62.50;;;;;;5092363;28;19912;-35
2023/03/17 12:51:49;;;;;;;;;;;17.30;62.00;;;;;;5092102;28;20275;-36
2023/03/17 12:54:20;;;;;;;;;;;17.40;62.00;;;;;;5092086;28;19912;-38
2023/03/17 12:56:47;;;;;;;;;;;17.50;62.00;;;;;;5092048;28;19913;-37
2023/03/17 12:59:18;;;;;;;;;;;17.50;61.80;;;;;;5091927;28;20019;-36
2023/03/17 13:01:56;;;;;;;;;;;17.60;61.70;;;;;;5091819;28;19923;-36
2023/03/17 13:04:26;;;;;;;;;;;17.50;61.20;;;;;;5091821;28;20371;-35
2023/03/17 13:07:04;;;;;;;;;;;17.60;61.30;;;;;;5092077;28;19919;-36
2023/03/17 13:09:33;;;;;;;;;;;17.60;61.30;;;;;;5092008;28;20399;-37
2023/03/17 13:12:00;;;;;;;;;;;17.70;61.10;;;;;;5091967;28;19935;-36
2023/03/17 13:14:36;;;;;;;;;;;17.80;61.50;;;;;;5091753;28;19912;-37
2023/03/17 13:17:24;;;;;;;;;;;17.80;61.40;;;;;;5091701;28;20056;-36
2023/03/17 13:20:09;;;;;;;;;;;17.80;61.00;;;;;;5097063;28;19991;-36
2023/03/17 13:22:40;;;;;;;;;;;17.80;60.90;;;;;;5091563;28;19923;-36
2023/03/17 13:25:24;;;;;;;;;;;17.80;61.20;;;;;;5091578;28;20291;-36
2023/03/17 13:27:49;;;;;;;;;;;17.80;61.80;;;;;;5091446;28;19919;-36
2023/03/17 13:30:21;;;;;;;;;;;17.80;61.30;;;;;;5091491;28;19912;-35
2023/03/17 13:33:06;;;;;;;;;;;17.90;61.60;;;;;;5091796;28;19919;-37
2023/03/17 13:35:43;;;;;;;;;;;17.90;61.70;;;;;;5091850;28;20394;-36
2023/03/17 13:38:26;;;;;;;;;;;18.00;61.80;;;;;;5091368;28;20018;-36
2023/03/17 13:40:54;;;;;;;;;;;18.00;61.80;;;;;;5091293;28;19999;-37
2023/03/17 13:43:36;;;;;;;;;;;18.00;61.90;;;;;;5091561;28;20451;-35
2023/03/17 13:46:20;;;;;;;;;;;18.00;61.90;;;;;;5091696;28;20314;-36
2023/03/17 13:48:45;;;;;;;;;;;18.00;62.10;;;;;;5091589;28;20232;-37
2023/03/17 13:51:11;;;;;;;;;;;18.00;62.20;;;;;;5091516;28;19919;-36
2023/03/17 13:53:40;;;;;;;;;;;18.00;62.20;;;;;;5091395;28;20408;-38
2023/03/17 13:56:20;;;;;;;;;;;18.00;62.30;;;;;;5091465;28;19916;-37
2023/03/17 13:58:56;;;;;;;;;;;18.00;62.20;;;;;;5093734;28;20014;-37
2023/03/17 14:01:22;;;;;;;;;;;18.00;62.40;;;;;;5095351;28;19948;-37
2023/03/17 14:03:50;;;;;;;;;;;18.10;62.50;;;;;;5095220;28;19916;-38
2023/03/17 14:06:17;;;;;;;;;;;18.10;62.50;;;;;;5095100;28;19912;-37
2023/03/17 14:08:59;;;;;;;;;;;18.10;62.50;;;;;;5094937;28;19912;-35
2023/03/17 14:11:33;;;;;;;;;;;18.20;62.60;;;;;;5093599;28;19912;-37
2023/03/17 14:14:17;;;;;;;;;;;18.20;62.60;;;;;;5095292;28;19945;-36
2023/03/17 14:16:45;;;;;;;;;;;18.20;62.70;;;;;;5094841;28;19919;-35
2023/03/17 14:19:22;;;;;;;;;;;18.20;62.70;;;;;;5094290;28;19920;-34
2023/03/17 14:21:48;;;;;;;;;;;18.30;62.80;;;;;;5094618;28;19913;-35
2023/03/17 14:24:24;;;;;;;;;;;18.40;62.80;;;;;;5094369;28;19919;-28
2023/03/17 14:26:50;;;;;;;;;;;18.40;62.70;;;;;;5094551;28;19965;-29
2023/03/17 14:29:17;;;;;;;;;;;18.50;62.60;;;;;;5094482;28;19912;-32